EJU57YG EGPH-LIMC
Flight info
| Callsign | EJU57YG |
|---|---|
| Flight time | N/A |
| Altitude | 37000 |
| Route | TLA Y96 HAVEN DCT OTBUN DCT ERKIT N110 DOLAS DCT NAVPI DCT MAVAS DCT ODVIL DCT WOODY N872 NIK DCT BUB M624 REMBA DCT SUTAL DCT GTQ DCT OBORN DCT DEVDI DCT BASGO Z424 RIXUV |
| Aircraft | A320/M-VGDW/C |
Departure
| Time | 2026-05-05 16:57 |
|---|---|
| Airport | Edinburgh Airport (EGPH) |
Arrival
| Time | N/A |
|---|---|
| Airport | Milan Malpensa International Airport (LIMC) |
| Time | Latitude | Longitude | Altitude | Speed | Heading |
|---|---|---|---|---|---|
| 2026-05-05 16:24 | 55.94939 | -3.35985 | 117 ft | 0 kts | 254° |
| 2026-05-05 16:46 | 55.94940 | -3.35978 | 117 ft | 2 kts | 250° |
| 2026-05-05 16:46 | 55.94945 | -3.35949 | 112 ft | 2 kts | 253° |
| 2026-05-05 16:46 | 55.94948 | -3.35921 | 114 ft | 2 kts | 289° |
| 2026-05-05 16:46 | 55.94943 | -3.35893 | 113 ft | 2 kts | 294° |
| 2026-05-05 16:47 | 55.94936 | -3.35866 | 113 ft | 2 kts | 297° |
| 2026-05-05 16:47 | 55.94928 | -3.35840 | 114 ft | 2 kts | 299° |
| 2026-05-05 16:47 | 55.94920 | -3.35814 | 112 ft | 2 kts | 300° |
| 2026-05-05 16:47 | 55.94916 | -3.35804 | 112 ft | 0 kts | 299° |
| 2026-05-05 16:49 | 55.94917 | -3.35804 | 112 ft | 1 kts | 299° |
| 2026-05-05 16:50 | 55.94918 | -3.35810 | 112 ft | 0 kts | 300° |
| 2026-05-05 16:50 | 55.94919 | -3.35811 | 112 ft | 1 kts | 299° |
| 2026-05-05 16:50 | 55.94964 | -3.35860 | 116 ft | 11 kts | 356° |
| 2026-05-05 16:51 | 55.95030 | -3.35835 | 117 ft | 9 kts | 351° |
| 2026-05-05 16:51 | 55.95071 | -3.35922 | 116 ft | 11 kts | 298° |
| 2026-05-05 16:51 | 55.95102 | -3.36044 | 114 ft | 10 kts | 289° |
| 2026-05-05 16:51 | 55.95125 | -3.36166 | 116 ft | 12 kts | 288° |
| 2026-05-05 16:52 | 55.95130 | -3.36291 | 116 ft | 11 kts | 250° |
| 2026-05-05 16:52 | 55.95102 | -3.36381 | 115 ft | 15 kts | 241° |
| 2026-05-05 16:52 | 55.95037 | -3.36569 | 113 ft | 18 kts | 237° |
| 2026-05-05 16:52 | 55.94976 | -3.36751 | 113 ft | 17 kts | 239° |
| 2026-05-05 16:53 | 55.94905 | -3.36956 | 115 ft | 21 kts | 238° |
| 2026-05-05 16:53 | 55.94831 | -3.37175 | 112 ft | 22 kts | 239° |
| 2026-05-05 16:53 | 55.94742 | -3.37439 | 112 ft | 27 kts | 239° |
| 2026-05-05 16:53 | 55.94643 | -3.37732 | 114 ft | 27 kts | 239° |
| 2026-05-05 16:54 | 55.94549 | -3.38009 | 115 ft | 26 kts | 238° |
| 2026-05-05 16:54 | 55.94459 | -3.38272 | 113 ft | 24 kts | 238° |
| 2026-05-05 16:54 | 55.94377 | -3.38515 | 114 ft | 22 kts | 238° |
| 2026-05-05 16:54 | 55.94303 | -3.38734 | 113 ft | 12 kts | 238° |
| 2026-05-05 16:55 | 55.94282 | -3.38834 | 116 ft | 7 kts | 279° |
| 2026-05-05 16:55 | 55.94307 | -3.38888 | 114 ft | 6 kts | 326° |
| 2026-05-05 16:55 | 55.94364 | -3.38950 | 114 ft | 11 kts | 328° |
| 2026-05-05 16:55 | 55.94423 | -3.38948 | 112 ft | 8 kts | 44° |
| 2026-05-05 16:56 | 55.94432 | -3.38923 | 114 ft | 1 kts | 59° |
| 2026-05-05 16:56 | 55.94551 | -3.38568 | 111 ft | 72 kts | 58° |
| 2026-05-05 16:56 | 55.94931 | -3.37439 | 112 ft | 135 kts | 59° |
| 2026-05-05 16:56 | 55.95468 | -3.35872 | 584 ft | 148 kts | 60° |
| 2026-05-05 16:57 | 55.96034 | -3.34290 | 1250 ft | 160 kts | 48° |
| 2026-05-05 16:57 | 55.96855 | -3.32794 | 1733 ft | 172 kts | 38° |
| 2026-05-05 16:57 | 55.97744 | -3.31309 | 2320 ft | 178 kts | 39° |
| 2026-05-05 16:57 | 55.98618 | -3.29660 | 2852 ft | 186 kts | 43° |
| 2026-05-05 16:58 | 55.99571 | -3.28011 | 3367 ft | 195 kts | 36° |
| 2026-05-05 16:58 | 56.00671 | -3.26384 | 3812 ft | 211 kts | 36° |
| 2026-05-05 16:58 | 56.01844 | -3.24665 | 4367 ft | 224 kts | 35° |
| 2026-05-05 16:58 | 56.03094 | -3.22865 | 4954 ft | 238 kts | 35° |
| 2026-05-05 16:59 | 56.04320 | -3.20744 | 5567 ft | 255 kts | 52° |
| 2026-05-05 16:59 | 56.05031 | -3.17685 | 5918 ft | 282 kts | 80° |
| 2026-05-05 16:59 | 56.04915 | -3.14192 | 5920 ft | 284 kts | 102° |
| 2026-05-05 16:59 | 56.04373 | -3.10796 | 6003 ft | 285 kts | 113° |
| 2026-05-05 17:00 | 56.03407 | -3.07728 | 5999 ft | 283 kts | 128° |
| 2026-05-05 17:00 | 56.02041 | -3.05234 | 6006 ft | 281 kts | 144° |
| 2026-05-05 17:00 | 56.00470 | -3.03160 | 6007 ft | 281 kts | 146° |
| 2026-05-05 17:00 | 55.98895 | -3.01095 | 5997 ft | 281 kts | 146° |
| 2026-05-05 17:01 | 55.97213 | -2.99375 | 6000 ft | 276 kts | 168° |
| 2026-05-05 17:01 | 55.95336 | -2.99326 | 6005 ft | 270 kts | 195° |
| 2026-05-05 17:01 | 55.93583 | -3.00425 | 6006 ft | 266 kts | 210° |
| 2026-05-05 17:01 | 55.91939 | -3.01961 | 6009 ft | 266 kts | 210° |
| 2026-05-05 17:02 | 55.90245 | -3.03398 | 6004 ft | 268 kts | 207° |
| 2026-05-05 17:02 | 55.88571 | -3.04736 | 6007 ft | 267 kts | 207° |
| 2026-05-05 17:02 | 55.86849 | -3.06084 | 6000 ft | 267 kts | 207° |
| 2026-05-05 17:02 | 55.85151 | -3.07414 | 6003 ft | 267 kts | 206° |
| 2026-05-05 17:03 | 55.83452 | -3.08754 | 6002 ft | 267 kts | 207° |
| 2026-05-05 17:03 | 55.81758 | -3.10097 | 6001 ft | 267 kts | 207° |
| 2026-05-05 17:03 | 55.80059 | -3.11445 | 5997 ft | 266 kts | 207° |
| 2026-05-05 17:03 | 55.78372 | -3.12785 | 6001 ft | 266 kts | 207° |
| 2026-05-05 17:04 | 55.76684 | -3.14123 | 6001 ft | 266 kts | 207° |
| 2026-05-05 17:04 | 55.74987 | -3.15462 | 5998 ft | 266 kts | 207° |
| 2026-05-05 17:04 | 55.73300 | -3.16800 | 5998 ft | 266 kts | 207° |
| 2026-05-05 17:04 | 55.71612 | -3.18140 | 5993 ft | 266 kts | 207° |
| 2026-05-05 17:05 | 55.69923 | -3.19483 | 5997 ft | 266 kts | 207° |
| 2026-05-05 17:05 | 55.68232 | -3.20827 | 5999 ft | 267 kts | 207° |
| 2026-05-05 17:05 | 55.66538 | -3.22169 | 5993 ft | 267 kts | 207° |
| 2026-05-05 17:05 | 55.64842 | -3.23511 | 5989 ft | 267 kts | 207° |
| 2026-05-05 17:06 | 55.63150 | -3.24852 | 5987 ft | 266 kts | 207° |
| 2026-05-05 17:06 | 55.61459 | -3.26192 | 5985 ft | 265 kts | 207° |
| 2026-05-05 17:06 | 55.59767 | -3.27527 | 5977 ft | 266 kts | 207° |
| 2026-05-05 17:06 | 55.58078 | -3.28856 | 5982 ft | 266 kts | 207° |
| 2026-05-05 17:07 | 55.56389 | -3.30184 | 5983 ft | 266 kts | 207° |
| 2026-05-05 17:07 | 55.54700 | -3.31502 | 5984 ft | 270 kts | 204° |
| 2026-05-05 17:07 | 55.52822 | -3.32097 | 5979 ft | 273 kts | 178° |
| 2026-05-05 17:07 | 55.51015 | -3.31154 | 5975 ft | 278 kts | 152° |
| 2026-05-05 17:08 | 55.49611 | -3.28822 | 6293 ft | 282 kts | 123° |
| 2026-05-05 17:08 | 55.48905 | -3.25578 | 7087 ft | 288 kts | 102° |
| 2026-05-05 17:08 | 55.48517 | -3.22085 | 7927 ft | 292 kts | 101° |
| 2026-05-05 17:08 | 55.48129 | -3.18500 | 8789 ft | 297 kts | 101° |
| 2026-05-05 17:09 | 55.47749 | -3.14933 | 9601 ft | 302 kts | 101° |
| 2026-05-05 17:09 | 55.47351 | -3.11213 | 10331 ft | 310 kts | 101° |
| 2026-05-05 17:09 | 55.46939 | -3.07375 | 10749 ft | 327 kts | 101° |
| 2026-05-05 17:09 | 55.46505 | -3.03328 | 11154 ft | 344 kts | 101° |
| 2026-05-05 17:10 | 55.45859 | -2.99171 | 11527 ft | 360 kts | 112° |
| 2026-05-05 17:10 | 55.44705 | -2.95161 | 11946 ft | 373 kts | 121° |
| 2026-05-05 17:10 | 55.43412 | -2.91153 | 12588 ft | 379 kts | 120° |
| 2026-05-05 17:10 | 55.42109 | -2.87090 | 13315 ft | 383 kts | 120° |
| 2026-05-05 17:11 | 55.40801 | -2.82990 | 14002 ft | 387 kts | 120° |
| 2026-05-05 17:11 | 55.39477 | -2.78829 | 14622 ft | 391 kts | 120° |
| 2026-05-05 17:11 | 55.38141 | -2.74640 | 15230 ft | 394 kts | 120° |
| 2026-05-05 17:11 | 55.36790 | -2.70413 | 15854 ft | 398 kts | 120° |
| 2026-05-05 17:12 | 55.35426 | -2.66157 | 16460 ft | 402 kts | 120° |
| 2026-05-05 17:12 | 55.34043 | -2.61858 | 17070 ft | 406 kts | 120° |
| 2026-05-05 17:12 | 55.32647 | -2.57532 | 17665 ft | 409 kts | 120° |
| 2026-05-05 17:12 | 55.31233 | -2.53161 | 18283 ft | 413 kts | 120° |
| 2026-05-05 17:13 | 55.29807 | -2.48759 | 18803 ft | 417 kts | 121° |
| 2026-05-05 17:13 | 55.28168 | -2.44564 | 19353 ft | 418 kts | 131° |
| 2026-05-05 17:13 | 55.26149 | -2.40890 | 19904 ft | 419 kts | 140° |
| 2026-05-05 17:13 | 55.23856 | -2.37741 | 20436 ft | 420 kts | 144° |
| 2026-05-05 17:14 | 55.21516 | -2.34646 | 20956 ft | 423 kts | 144° |
| 2026-05-05 17:14 | 55.19131 | -2.31486 | 21472 ft | 426 kts | 144° |
| 2026-05-05 17:14 | 55.16760 | -2.28346 | 21961 ft | 428 kts | 144° |
| 2026-05-05 17:14 | 55.14377 | -2.25191 | 22443 ft | 431 kts | 144° |
| 2026-05-05 17:15 | 55.11976 | -2.22020 | 22906 ft | 434 kts | 144° |
| 2026-05-05 17:15 | 55.09562 | -2.18835 | 23360 ft | 436 kts | 144° |
| 2026-05-05 17:15 | 55.07137 | -2.15635 | 23763 ft | 439 kts | 144° |
| 2026-05-05 17:15 | 55.04696 | -2.12420 | 24114 ft | 441 kts | 144° |
| 2026-05-05 17:16 | 55.02238 | -2.09192 | 24493 ft | 443 kts | 144° |
| 2026-05-05 17:16 | 54.99768 | -2.05954 | 24840 ft | 445 kts | 144° |
| 2026-05-05 17:16 | 54.97290 | -2.02711 | 25198 ft | 447 kts | 144° |
| 2026-05-05 17:16 | 54.94811 | -1.99469 | 25542 ft | 449 kts | 144° |
| 2026-05-05 17:17 | 54.92289 | -1.96177 | 25875 ft | 451 kts | 144° |
| 2026-05-05 17:17 | 54.89774 | -1.92900 | 26198 ft | 453 kts | 144° |
| 2026-05-05 17:17 | 54.87247 | -1.89617 | 26528 ft | 455 kts | 144° |
| 2026-05-05 17:17 | 54.84708 | -1.86325 | 26838 ft | 456 kts | 144° |
| 2026-05-05 17:18 | 54.82162 | -1.83025 | 27152 ft | 458 kts | 144° |
| 2026-05-05 17:18 | 54.79609 | -1.79716 | 27447 ft | 459 kts | 144° |
| 2026-05-05 17:18 | 54.77041 | -1.76395 | 27741 ft | 461 kts | 144° |
| 2026-05-05 17:18 | 54.74470 | -1.73079 | 28026 ft | 462 kts | 144° |
| 2026-05-05 17:19 | 54.71887 | -1.69755 | 28299 ft | 463 kts | 144° |
| 2026-05-05 17:19 | 54.70139 | -1.67508 | 28489 ft | 464 kts | 144° |
| 2026-05-05 17:19 | 54.67548 | -1.64178 | 28750 ft | 465 kts | 144° |
| 2026-05-05 17:19 | 54.64948 | -1.60842 | 29005 ft | 466 kts | 144° |
| 2026-05-05 17:20 | 54.62336 | -1.57498 | 29327 ft | 466 kts | 144° |
| 2026-05-05 17:20 | 54.59743 | -1.54185 | 29689 ft | 464 kts | 144° |
| 2026-05-05 17:20 | 54.57150 | -1.50880 | 30051 ft | 462 kts | 144° |
| 2026-05-05 17:20 | 54.54567 | -1.47594 | 30359 ft | 461 kts | 144° |
| 2026-05-05 17:21 | 54.51994 | -1.44321 | 30669 ft | 460 kts | 144° |
| 2026-05-05 17:21 | 54.49388 | -1.41013 | 30968 ft | 458 kts | 144° |
| 2026-05-05 17:21 | 54.46826 | -1.37767 | 31250 ft | 457 kts | 144° |
| 2026-05-05 17:22 | 54.41711 | -1.31298 | 31817 ft | 456 kts | 144° |
| 2026-05-05 17:22 | 54.39157 | -1.28074 | 32093 ft | 455 kts | 144° |
| 2026-05-05 17:22 | 54.36609 | -1.24865 | 32382 ft | 454 kts | 144° |
| 2026-05-05 17:22 | 54.34064 | -1.21668 | 32663 ft | 453 kts | 144° |
| 2026-05-05 17:23 | 54.31521 | -1.18476 | 32944 ft | 452 kts | 144° |
| 2026-05-05 17:23 | 54.28986 | -1.15296 | 33226 ft | 452 kts | 144° |
| 2026-05-05 17:23 | 54.26455 | -1.12125 | 33501 ft | 451 kts | 144° |
| 2026-05-05 17:23 | 54.23924 | -1.08962 | 33783 ft | 450 kts | 144° |
| 2026-05-05 17:24 | 54.21395 | -1.05809 | 34065 ft | 450 kts | 144° |
| 2026-05-05 17:24 | 54.18869 | -1.02663 | 34296 ft | 449 kts | 144° |
| 2026-05-05 17:24 | 54.16344 | -0.99520 | 34524 ft | 449 kts | 144° |
| 2026-05-05 17:24 | 54.13823 | -0.96393 | 34739 ft | 448 kts | 144° |
| 2026-05-05 17:25 | 54.11301 | -0.93269 | 34945 ft | 448 kts | 144° |
| 2026-05-05 17:25 | 54.09598 | -0.91160 | 35086 ft | 448 kts | 144° |
| 2026-05-05 17:25 | 54.06262 | -0.87030 | 35349 ft | 448 kts | 144° |
| 2026-05-05 17:25 | 54.03741 | -0.83916 | 35536 ft | 448 kts | 144° |
| 2026-05-05 17:26 | 54.01176 | -0.80780 | 35731 ft | 447 kts | 145° |
| 2026-05-05 17:26 | 53.98631 | -0.77752 | 35915 ft | 447 kts | 146° |
| 2026-05-05 17:26 | 53.96068 | -0.74757 | 36095 ft | 447 kts | 146° |
| 2026-05-05 17:26 | 53.93498 | -0.71782 | 36265 ft | 447 kts | 146° |
| 2026-05-05 17:27 | 53.90930 | -0.68819 | 36429 ft | 447 kts | 146° |
| 2026-05-05 17:27 | 53.88363 | -0.65850 | 36589 ft | 447 kts | 146° |
| 2026-05-05 17:27 | 53.85806 | -0.62875 | 36745 ft | 447 kts | 146° |
| 2026-05-05 17:27 | 53.83239 | -0.59884 | 36890 ft | 447 kts | 146° |
| 2026-05-05 17:28 | 53.80684 | -0.56905 | 37010 ft | 447 kts | 146° |
| 2026-05-05 17:28 | 53.75528 | -0.50911 | 37030 ft | 450 kts | 146° |
| 2026-05-05 17:29 | 53.70369 | -0.44941 | 37020 ft | 450 kts | 147° |
| 2026-05-05 17:29 | 53.65173 | -0.38951 | 37024 ft | 449 kts | 147° |
| 2026-05-05 17:30 | 53.60009 | -0.33006 | 37031 ft | 449 kts | 146° |
| 2026-05-05 17:30 | 53.55556 | -0.25623 | 37020 ft | 454 kts | 128° |
| 2026-05-05 17:31 | 53.51775 | -0.17125 | 37021 ft | 454 kts | 129° |
| 2026-05-05 17:31 | 53.47971 | -0.08663 | 37024 ft | 454 kts | 129° |
| 2026-05-05 17:32 | 53.44123 | -0.00175 | 37021 ft | 454 kts | 129° |
| 2026-05-05 17:32 | 53.40298 | 0.08245 | 37020 ft | 454 kts | 129° |
| 2026-05-05 17:33 | 53.36483 | 0.16657 | 37013 ft | 454 kts | 129° |
| 2026-05-05 17:33 | 53.32661 | 0.25062 | 37005 ft | 453 kts | 129° |
| 2026-05-05 17:34 | 53.28832 | 0.33444 | 37004 ft | 453 kts | 129° |
| 2026-05-05 17:34 | 53.24989 | 0.41795 | 37003 ft | 453 kts | 130° |
| 2026-05-05 17:35 | 53.21139 | 0.50122 | 36996 ft | 453 kts | 130° |
| 2026-05-05 17:35 | 53.17288 | 0.58457 | 36998 ft | 453 kts | 130° |
| 2026-05-05 17:36 | 53.13438 | 0.66766 | 36999 ft | 453 kts | 130° |
| 2026-05-05 17:36 | 53.09577 | 0.75060 | 36993 ft | 453 kts | 130° |
| 2026-05-05 17:37 | 53.05705 | 0.83362 | 36993 ft | 453 kts | 130° |
| 2026-05-05 17:37 | 53.01846 | 0.91610 | 36995 ft | 453 kts | 130° |
| 2026-05-05 17:38 | 52.98118 | 1.00114 | 36993 ft | 455 kts | 121° |
| 2026-05-05 17:38 | 52.95654 | 1.09826 | 36987 ft | 458 kts | 112° |
| 2026-05-05 17:39 | 52.93433 | 1.19737 | 36992 ft | 458 kts | 113° |
| 2026-05-05 17:39 | 52.91185 | 1.29627 | 37002 ft | 459 kts | 113° |
| 2026-05-05 17:40 | 52.88931 | 1.39495 | 37006 ft | 458 kts | 113° |
| 2026-05-05 17:40 | 52.86666 | 1.49369 | 36995 ft | 458 kts | 113° |
| 2026-05-05 17:41 | 52.84397 | 1.59215 | 37003 ft | 458 kts | 113° |
| 2026-05-05 17:41 | 52.82111 | 1.69125 | 37000 ft | 458 kts | 114° |
| 2026-05-05 17:42 | 52.79825 | 1.78943 | 36990 ft | 457 kts | 114° |
| 2026-05-05 17:42 | 52.77535 | 1.88757 | 36985 ft | 457 kts | 114° |
| 2026-05-05 17:43 | 52.75238 | 1.98534 | 36986 ft | 457 kts | 114° |
| 2026-05-05 17:43 | 52.72934 | 2.08295 | 36990 ft | 456 kts | 114° |
| 2026-05-05 17:44 | 52.70631 | 2.18043 | 36990 ft | 456 kts | 114° |